Погода METAR - Красноярск

Кемерово, Абакан, Красноярск, Новосибирск
Код METAR*: UNKL 270830Z 27004MPS 8000 -SN SCT032 M25/M30 Q1047 R29/420150 NOSIG RMK QFE759

Погода - Сейчас

Время: 2022-11-27 15:30, местное
Направление ветра: Запад (270°)
Скорость ветра: 4 м/с
Видимость:
Температура: -25°C
Точка росы: -30°C
Атмосферное давление: 1047 гПа

Архив погоды

Время, местное Направление Скорость, м/с Температура, °C Точка росы, °C Давление, гПа
2022-11-27 15:30 З (270°) 4 -25 -30 1047
2022-11-25 08:30 ЗЮЗ (250°) 2 -15 -19 1018
2022-11-25 12:30 СЗ (310°) 3 -15 -19 1015
2022-11-24 15:30 ЗЮЗ (260°) 5 -19 -23 1028
2022-11-24 12:00 ЗЮЗ (260°) 5, порывы до 10 -22 -27 1029
2022-11-23 22:30 З (270°) 6 -19 -24 1018
2022-11-22 17:30 ЮЮВ (150°) 2 -6 -10 1006
2022-11-21 12:00 ЗЮЗ (260°) 8, порывы до 14 -14 -18 1017
2022-11-19 11:30 В (100°) 2 -10 -13 1023
2022-11-16 22:00 ЗЮЗ (240°) 5 1 -5 1005
2022-11-16 03:00 ЮЗ (230°) 4 2 1 997
2022-11-15 18:30 ЮЮЗ (200°) 4 4 1 996
2022-11-15 17:00 ЮЮЗ (200°) 3 5 -2 996
2022-11-14 20:30 ЗЮЗ (250°) 3 0 -1 1006
2022-11-14 11:30 ЗЮЗ (240°) 4 1 0 1006
2022-11-14 00:00 ЮЗ (230°) 4 1 -1 1004
2022-11-11 00:30 ЗЮЗ (240°) 4 -2 -5 1026
2022-11-10 00:00 ЗЮЗ (260°) 6 -1 -5 1025
2022-11-09 12:00 Штиль 0 -5 -6 1021
2022-11-09 08:30 ЮВ (120°) 1 -9 -9 1021
2022-11-08 10:00 Штиль 0 -2 -4 1019
2022-11-06 21:30 З (270°) 2 0 0 1010
2022-11-05 04:30 СЗ (310°) 1 -1 -3 1022
2022-11-04 17:00 З (270°) 4 1 -4 1024
2022-11-04 03:30 Переменный 1 -1 -1 1023
2022-11-03 04:30 Штиль 0 -8 -8 1023
2022-10-29 14:00 ЗЮЗ (260°) 7 -1 -8 1027
2022-10-27 16:00 ЮЮЗ (200°) 3 8 -7 1016
2022-10-27 11:30 Переменный 1 -2 -5 1017
2022-10-22 12:30 ЮЮЗ (200°) 5 8 4 1016
2022-10-26 01:30 ЮЗ (210°) 3 -5 -7 1022
2022-10-25 16:30 ЮЗ (220°) 3 3 -7 1024
2022-10-24 14:30 ЗЮЗ (260°) 7, порывы до 15 1 -3 1025
2022-10-22 05:00 В (80°) 2 0 0 1018
2022-10-19 21:00 З (270°) 2 2 1 1020
2022-10-14 04:00 ЗСЗ (290°) 4 1 1 1028
2022-10-12 15:00 СЗ (320°) 6 4 3 1015
2022-10-12 04:30 ЗЮЗ (240°) 3 5 4 1015
2022-10-11 19:30 ЮЗ (230°) 7, порывы до 12 7 4 1014
2022-10-10 18:00 З (270°) 5 9 2 1017
2022-10-09 08:30 ЮЮЗ (200°) 4 10 -4 1016
2022-10-08 23:00 Ю (180°) 4 8 -3 1019
2022-10-08 03:30 Штиль 0 -3 -3 1029
2022-10-08 02:30 Штиль 0 -3 -3 1029
2022-10-07 07:00 ЮЗ (230°) 1 1 1 1031
2022-10-06 18:30 З (280°) 2 2 2 1025
2022-10-05 20:00 ЗЮЗ (260°) 4 2 1 1022
2022-09-30 16:30 З (280°) 6 4 -5 1021